Happyland, Minnesota
Current Conditions -  °F | °C
As of 1:55 AM on Friday 24 Oct 2014 (Local Time) from KINL Reporting Station
Clear Clear  
Wind Chill: 50°   Ceiling: Unl
Heat Index: 50°   Visibility: 10mi
Dew Point: 40°   Wind: 5mph
Humidity: 68%   Direction: 160°SSE
Pressure: 29.79"   Gusts: NA
Location:  48.2756°N, 93.4004°W
Report Text: KINL 240655Z AUTO 16004KT 10SM CLR 10/04 A2979 RMK AO2 SLP091 T01000044
Loading
Personal Weather Stations






























Interactive Weather Map
Tropical Storm Tracking
New forecast layout! Learn more

10-Day Weather Forecast

Advertisements
Track Severe Weather on mobile